createdAt,value
2018-06-03T00:05:33.320Z,40.20
2018-06-03T00:11:37.361Z,35.20
2018-06-03T00:17:41.433Z,49.90
2018-06-03T00:23:45.469Z,54.53
2018-06-03T00:29:49.894Z,44.07
2018-06-03T00:36:12.924Z,60.33
2018-06-03T00:42:17.315Z,44.97
2018-06-03T00:48:21.720Z,44.40
2018-06-03T00:54:26.907Z,48.47
2018-06-03T01:00:31.275Z,43.93
2018-06-03T01:06:35.636Z,36.80
2018-06-03T01:12:39.946Z,35.97
2018-06-03T01:18:45.138Z,33.90
2018-06-03T01:24:49.883Z,34.77
2018-06-03T01:30:54.307Z,43.77
2018-06-03T01:36:58.665Z,37.60
2018-06-03T01:43:03.019Z,55.03
2018-06-03T01:49:07.364Z,43.90
2018-06-03T01:55:12.485Z,50.07
2018-06-03T02:01:16.845Z,44.17
2018-06-03T02:07:22.257Z,57.07
2018-06-03T02:13:26.677Z,39.83
2018-06-03T02:19:31.084Z,50.10
2018-06-03T02:25:36.198Z,49.00
2018-06-03T02:31:40.562Z,43.97
2018-06-03T02:37:44.912Z,48.97
2018-06-03T02:43:50.202Z,44.10
2018-06-03T02:49:55.408Z,42.77
2018-06-03T02:56:00.555Z,55.43
2018-06-03T03:02:05.087Z,43.43
2018-06-03T03:08:10.204Z,37.47
2018-06-03T03:14:14.546Z,42.13
2018-06-03T03:20:19.289Z,47.20
2018-06-03T03:26:23.639Z,45.63
2018-06-03T03:32:28.436Z,46.33
2018-06-03T03:38:32.824Z,39.57
2018-06-03T03:44:37.149Z,50.67
2018-06-03T03:50:41.551Z,40.70
2018-06-03T03:56:45.922Z,49.00
2018-06-03T04:02:50.278Z,63.87
2018-06-03T04:08:54.871Z,49.20
2018-06-03T04:14:59.234Z,38.13
2018-06-03T04:21:03.579Z,32.17
2018-06-03T04:27:08.078Z,39.93
2018-06-03T04:33:13.220Z,26.83
2018-06-03T04:39:17.546Z,23.97
2018-06-03T04:45:21.970Z,41.60
2018-06-03T04:51:26.360Z,44.57
2018-06-03T04:57:32.236Z,35.27
2018-06-03T05:03:36.598Z,31.60
2018-06-03T05:09:40.941Z,31.00
2018-06-03T05:15:46.140Z,34.13
2018-06-03T05:21:50.708Z,35.40
2018-06-03T05:27:56.226Z,21.50
2018-06-03T05:34:01.352Z,20.73
2018-06-03T05:40:05.705Z,33.30
2018-06-03T05:46:10.059Z,27.83
2018-06-03T05:52:15.219Z,26.73
2018-06-03T05:58:19.661Z,29.43
2018-06-03T06:04:25.009Z,28.40
2018-06-03T06:10:29.366Z,28.13
2018-06-03T06:16:33.719Z,30.77
2018-06-03T06:22:38.110Z,31.57
2018-06-03T06:28:42.621Z,38.33
2018-06-03T06:34:47.180Z,33.30
2018-06-03T06:40:51.845Z,49.47
2018-06-03T06:46:56.289Z,55.67
2018-06-03T06:53:00.672Z,46.23
2018-06-03T06:59:05.029Z,47.13
2018-06-03T07:05:10.230Z,44.73
2018-06-03T07:11:14.582Z,43.43
2018-06-03T07:17:20.846Z,39.90
2018-06-03T07:23:25.617Z,37.57
2018-06-03T07:29:30.087Z,43.63
2018-06-03T07:35:35.207Z,43.03
2018-06-03T07:41:39.557Z,41.63
2018-06-03T07:47:43.901Z,40.23
2018-06-03T07:53:49.757Z,44.60
2018-06-03T07:59:54.299Z,48.80
2018-06-03T08:05:58.727Z,47.80
2018-06-03T08:12:03.423Z,43.50
2018-06-03T08:18:07.809Z,45.67
2018-06-03T08:24:12.166Z,38.77
2018-06-03T08:30:16.556Z,37.03
2018-06-03T08:36:21.600Z,44.43
2018-06-03T08:42:25.949Z,31.57
2018-06-03T08:48:31.069Z,33.43
2018-06-03T08:54:35.418Z,32.30
2018-06-03T09:00:40.600Z,30.10
2018-06-03T09:06:45.724Z,26.57
2018-06-03T09:12:50.196Z,32.40
2018-06-03T09:18:54.646Z,13.87
2018-06-03T09:24:59.953Z,19.20
2018-06-03T09:31:07.090Z,25.50
2018-06-03T09:37:11.733Z,22.13
2018-06-03T09:43:16.102Z,29.40
2018-06-03T09:49:20.634Z,25.03
2018-06-03T09:55:25.246Z,17.43
2018-06-03T10:01:29.606Z,18.53
2018-06-03T10:07:33.970Z,16.50
2018-06-03T10:13:38.359Z,18.70
2018-06-03T10:19:42.718Z,22.07
2018-06-03T10:25:47.030Z,21.40
2018-06-03T10:31:52.257Z,20.27
2018-06-03T10:37:57.485Z,18.43
2018-06-03T10:44:01.849Z,21.13
2018-06-03T10:50:06.195Z,18.97
2018-06-03T10:56:10.563Z,18.00
2018-06-03T11:02:14.911Z,14.27
2018-06-03T11:08:21.128Z,20.70
2018-06-03T11:14:25.573Z,19.00
2018-06-03T11:20:29.986Z,17.90
2018-06-03T11:26:34.341Z,18.90
2018-06-03T11:32:38.708Z,15.60
2018-06-03T11:38:43.076Z,15.60
2018-06-03T11:44:47.467Z,17.23
2018-06-03T11:50:52.052Z,11.63
2018-06-03T11:57:00.376Z,14.53
2018-06-03T12:03:05.488Z,13.47
2018-06-03T12:09:09.850Z,10.43
2018-06-03T12:15:15.145Z,11.40
2018-06-03T12:21:20.252Z,13.67
2018-06-03T12:27:25.073Z,13.03
2018-06-03T12:33:29.457Z,14.37
2018-06-03T12:39:33.809Z,17.90
2018-06-03T12:45:38.214Z,13.97
2018-06-03T12:51:42.640Z,12.23
2018-06-03T12:57:47.002Z,18.87
2018-06-03T13:03:52.295Z,17.80
2018-06-03T13:09:57.560Z,20.67
2018-06-03T13:16:49.779Z,15.10
2018-06-03T13:22:55.917Z,21.20
2018-06-03T13:29:01.751Z,18.60
2018-06-03T13:35:07.571Z,14.07
2018-06-03T13:41:13.270Z,12.70
2018-06-03T13:47:19.421Z,10.43
2018-06-03T13:53:25.613Z,10.10
2018-06-03T13:59:31.272Z,23.97
2018-06-03T14:05:37.004Z,10.60
2018-06-03T14:11:42.783Z,12.60
2018-06-03T14:17:48.393Z,10.30
2018-06-03T14:23:54.249Z,8.80
2018-06-03T14:30:00.182Z,7.50
2018-06-03T14:36:05.945Z,11.00
2018-06-03T14:42:12.033Z,11.87
2018-06-03T14:48:17.784Z,12.43
2018-06-03T14:54:24.189Z,8.77
2018-06-03T15:00:30.476Z,12.17
2018-06-03T15:06:36.244Z,10.47
2018-06-03T15:12:41.993Z,12.97
2018-06-03T15:18:47.681Z,10.73
2018-06-03T15:24:53.835Z,15.47
2018-06-03T15:30:59.551Z,13.40
2018-06-03T15:37:05.400Z,11.43
2018-06-03T15:43:11.077Z,11.80
2018-06-03T15:49:16.700Z,13.97
2018-06-03T15:55:23.568Z,13.27
2018-06-03T16:01:29.404Z,14.60
2018-06-03T16:07:35.054Z,16.53
2018-06-03T16:13:40.831Z,15.93
2018-06-03T16:19:46.403Z,20.70
2018-06-03T16:25:52.278Z,20.97
2018-06-03T16:31:57.977Z,21.47
2018-06-03T16:38:03.617Z,22.43
2018-06-03T16:44:09.279Z,22.40
2018-06-03T16:50:14.924Z,20.83
2018-06-03T16:56:20.890Z,22.70
2018-06-03T17:02:26.764Z,19.47
2018-06-03T17:08:32.437Z,19.17
2018-06-03T17:14:38.158Z,19.57
2018-06-03T17:20:43.917Z,17.87
2018-06-03T17:26:49.962Z,15.53
2018-06-03T17:32:55.934Z,17.60
2018-06-03T17:39:01.577Z,18.40
2018-06-03T17:45:07.279Z,17.80
2018-06-03T17:51:12.937Z,30.13
2018-06-03T17:57:18.605Z,17.43
2018-06-03T18:03:25.038Z,23.77
2018-06-03T18:09:30.845Z,20.30
2018-06-03T18:15:36.504Z,16.10
2018-06-03T18:21:42.534Z,22.83
2018-06-03T18:27:48.433Z,26.23
2018-06-03T18:33:54.752Z,20.13
2018-06-03T18:40:00.414Z,22.37
2018-06-03T18:46:06.178Z,18.33
2018-06-03T18:52:11.905Z,18.43
2018-06-03T18:58:17.682Z,20.17
2018-06-03T19:04:23.783Z,20.90
2018-06-03T19:10:29.616Z,19.83
2018-06-03T19:16:35.316Z,21.03
2018-06-03T19:22:41.175Z,28.13
2018-06-03T19:28:46.779Z,22.70
2018-06-03T19:34:53.369Z,29.40
2018-06-03T19:40:59.270Z,21.20
2018-06-03T19:47:05.266Z,24.73
2018-06-03T19:53:11.112Z,33.63
2018-06-03T19:59:16.781Z,25.00
2018-06-03T20:05:22.599Z,23.97
2018-06-03T20:11:28.572Z,25.50
2018-06-03T20:17:34.283Z,29.23
2018-06-03T20:23:40.199Z,23.57
2018-06-03T20:29:45.836Z,22.40
2018-06-03T20:35:52.657Z,25.17
2018-06-03T20:41:58.651Z,23.63
2018-06-03T20:48:04.357Z,21.27
2018-06-03T20:54:10.176Z,23.80
2018-06-03T21:00:15.857Z,27.43
2018-06-03T21:06:22.160Z,23.73
2018-06-03T21:12:27.973Z,22.70
2018-06-03T21:18:33.745Z,27.67
2018-06-03T21:24:39.791Z,27.87
2018-06-03T21:30:45.504Z,24.60
2018-06-03T21:36:52.558Z,24.43
2018-06-03T21:42:58.657Z,22.97
2018-06-03T21:49:04.429Z,25.77
2018-06-03T21:55:10.156Z,23.27
2018-06-03T22:01:15.818Z,27.70
2018-06-03T22:07:23.172Z,24.90
2018-06-03T22:13:29.139Z,26.30
2018-06-03T22:19:34.793Z,24.20
2018-06-03T22:25:40.480Z,22.90
2018-06-03T22:31:46.203Z,25.50
2018-06-03T22:37:52.467Z,27.80
2018-06-03T22:43:58.670Z,25.97
2018-06-03T22:50:04.390Z,30.67
2018-06-03T22:56:10.213Z,34.40
2018-06-03T23:02:16.065Z,28.20
2018-06-03T23:08:22.740Z,29.03
2018-06-03T23:14:28.803Z,31.73
2018-06-03T23:20:34.665Z,34.37
2018-06-03T23:26:40.421Z,33.73
2018-06-03T23:32:46.177Z,24.80
2018-06-03T23:38:53.211Z,26.20
2018-06-03T23:44:59.247Z,33.10
2018-06-03T23:51:05.033Z,34.80
2018-06-03T23:57:10.861Z,22.63
